sensor_id;sensor_type;location;lat;lon;timestamp;pressure;altitude;pressure_sealevel;temperature;humidity
46045;BME280;31781;54.094;13.428;2022-11-15T04:03:09;101468.19;;;7.53;76.96
46045;BME280;31781;54.094;13.428;2022-11-15T04:08:13;101450.72;;;7.55;76.77
46045;BME280;31781;54.094;13.428;2022-11-15T04:13:16;101451.75;;;7.54;77.05
46045;BME280;31781;54.094;13.428;2022-11-15T04:23:47;101437.69;;;7.59;76.55
46045;BME280;31781;54.094;13.428;2022-11-15T04:28:51;101442.81;;;7.54;76.75
46045;BME280;31781;54.094;13.428;2022-11-15T04:39:15;101443.09;;;7.59;76.50
46045;BME280;31781;54.094;13.428;2022-11-15T04:44:19;101452.28;;;7.50;77.02
46045;BME280;31781;54.094;13.428;2022-11-15T04:49:29;101437.19;;;7.47;77.19
46045;BME280;31781;54.094;13.428;2022-11-15T04:54:53;101449.88;;;7.55;76.85
46045;BME280;31781;54.094;13.428;2022-11-15T04:59:55;101449.06;;;7.46;76.92
46045;BME280;31781;54.094;13.428;2022-11-15T05:04:58;101449.22;;;7.45;77.48
46045;BME280;31781;54.094;13.428;2022-11-15T05:15:30;101437.37;;;7.54;76.77
46045;BME280;31781;54.094;13.428;2022-11-15T05:20:33;101450.94;;;7.46;77.11
46045;BME280;31781;54.094;13.428;2022-11-15T05:25:36;101451.09;;;7.44;77.45
46045;BME280;31781;54.094;13.428;2022-11-15T05:41:27;101436.34;;;7.55;77.04
46045;BME280;31781;54.094;13.428;2022-11-15T05:46:33;101429.78;;;7.49;77.36
46045;BME280;31781;54.094;13.428;2022-11-15T05:51:37;101421.81;;;7.48;77.86
46045;BME280;31781;54.094;13.428;2022-11-15T05:56:46;101422.66;;;7.48;77.89
46045;BME280;31781;54.094;13.428;2022-11-15T06:01:50;101432.12;;;7.52;77.46
46045;BME280;31781;54.094;13.428;2022-11-15T06:06:54;101440.09;;;7.54;77.84
46045;BME280;31781;54.094;13.428;2022-11-15T06:12:14;101431.59;;;7.65;77.27
46045;BME280;31781;54.094;13.428;2022-11-15T06:17:20;101441.91;;;7.61;77.36
46045;BME280;31781;54.094;13.428;2022-11-15T06:27:57;101444.94;;;7.66;76.91
46045;BME280;31781;54.094;13.428;2022-11-15T06:33:02;101452.94;;;7.60;77.07
46045;BME280;31781;54.094;13.428;2022-11-15T06:38:08;101455.31;;;7.55;77.25
46045;BME280;31781;54.094;13.428;2022-11-15T06:43:20;101464.28;;;7.55;77.61
46045;BME280;31781;54.094;13.428;2022-11-15T07:04:27;101474.59;;;7.60;77.05
46045;BME280;31781;54.094;13.428;2022-11-15T07:14:54;101489.16;;;7.59;77.22
46045;BME280;31781;54.094;13.428;2022-11-15T07:19:59;101486.28;;;7.52;77.21
46045;BME280;31781;54.094;13.428;2022-11-15T07:25:05;101492.91;;;7.50;77.49
46045;BME280;31781;54.094;13.428;2022-11-15T07:30:25;101498.31;;;7.50;77.57
46045;BME280;31781;54.094;13.428;2022-11-15T07:35:41;101496.09;;;7.53;77.05
46045;BME280;31781;54.094;13.428;2022-11-15T07:40:44;101501.69;;;7.52;77.56
46045;BME280;31781;54.094;13.428;2022-11-15T07:45:55;101499.66;;;7.54;77.52
46045;BME280;31781;54.094;13.428;2022-11-15T07:56:23;101499.81;;;7.60;76.99
46045;BME280;31781;54.094;13.428;2022-11-15T08:01:39;101514.72;;;7.56;76.99
46045;BME280;31781;54.094;13.428;2022-11-15T08:07:05;101513.00;;;7.63;76.70
46045;BME280;31781;54.094;13.428;2022-11-15T08:12:09;101522.66;;;7.58;77.03
46045;BME280;31781;54.094;13.428;2022-11-15T08:17:11;101509.09;;;7.58;77.03
46045;BME280;31781;54.094;13.428;2022-11-15T08:22:23;101510.81;;;7.59;77.24
46045;BME280;31781;54.094;13.428;2022-11-15T08:27:26;101508.94;;;7.59;77.01
46045;BME280;31781;54.094;13.428;2022-11-15T08:32:30;101520.63;;;7.60;77.12
46045;BME280;31781;54.094;13.428;2022-11-15T08:37:39;101522.16;;;7.62;77.36
46045;BME280;31781;54.094;13.428;2022-11-15T08:42:42;101522.66;;;7.66;77.12
46045;BME280;31781;54.094;13.428;2022-11-15T08:47:48;101521.28;;;7.70;76.74
46045;BME280;31781;54.094;13.428;2022-11-15T08:53:10;101513.16;;;7.70;77.15
46045;BME280;31781;54.094;13.428;2022-11-15T08:58:13;101502.84;;;7.73;77.01
46045;BME280;31781;54.094;13.428;2022-11-15T09:08:44;101500.09;;;7.90;76.64
46045;BME280;31781;54.094;13.428;2022-11-15T09:13:48;101505.69;;;7.88;76.84
46045;BME280;31781;54.094;13.428;2022-11-15T09:18:52;101498.75;;;7.94;77.04
46045;BME280;31781;54.094;13.428;2022-11-15T09:34:37;101497.66;;;8.11;76.40
46045;BME280;31781;54.094;13.428;2022-11-15T09:39:52;101512.41;;;8.08;76.50
46045;BME280;31781;54.094;13.428;2022-11-15T09:45:10;101528.31;;;8.11;76.48
46045;BME280;31781;54.094;13.428;2022-11-15T09:50:39;101515.91;;;8.17;76.14
46045;BME280;31781;54.094;13.428;2022-11-15T10:01:16;101505.41;;;8.30;75.96
46045;BME280;31781;54.094;13.428;2022-11-15T10:06:23;101508.81;;;8.24;76.06
46045;BME280;31781;54.094;13.428;2022-11-15T10:11:31;101505.75;;;8.27;76.42
46045;BME280;31781;54.094;13.428;2022-11-15T10:16:58;101493.84;;;8.36;75.95
46045;BME280;31781;54.094;13.428;2022-11-15T10:22:16;101481.09;;;8.45;75.92
46045;BME280;31781;54.094;13.428;2022-11-15T10:27:23;101475.66;;;8.53;75.74
46045;BME280;31781;54.094;13.428;2022-11-15T10:32:35;101475.78;;;8.59;75.49
46045;BME280;31781;54.094;13.428;2022-11-15T10:37:38;101470.47;;;8.66;75.37
46045;BME280;31781;54.094;13.428;2022-11-15T10:42:41;101473.87;;;8.68;75.25
46045;BME280;31781;54.094;13.428;2022-11-15T10:47:49;101467.41;;;8.69;75.17
46045;BME280;31781;54.094;13.428;2022-11-15T10:53:16;101474.03;;;8.66;75.02
46045;BME280;31781;54.094;13.428;2022-11-15T10:58:22;101464.41;;;8.64;75.17
46045;BME280;31781;54.094;13.428;2022-11-15T11:03:39;101460.63;;;8.65;75.14
46045;BME280;31781;54.094;13.428;2022-11-15T11:08:54;101467.75;;;8.66;75.21
46045;BME280;31781;54.094;13.428;2022-11-15T11:14:11;101475.03;;;8.65;75.18
46045;BME280;31781;54.094;13.428;2022-11-15T11:19:35;101466.91;;;8.65;75.15
46045;BME280;31781;54.094;13.428;2022-11-15T11:25:08;101464.16;;;8.73;75.15
46045;BME280;31781;54.094;13.428;2022-11-15T11:30:24;101472.50;;;8.72;75.27
46045;BME280;31781;54.094;13.428;2022-11-15T11:35:37;101463.66;;;8.70;75.27
46045;BME280;31781;54.094;13.428;2022-11-15T11:52:02;101432.84;;;8.63;75.37
46045;BME280;31781;54.094;13.428;2022-11-15T11:57:13;101433.50;;;8.65;75.44
46045;BME280;31781;54.094;13.428;2022-11-15T12:02:27;101423.72;;;8.64;75.58
46045;BME280;31781;54.094;13.428;2022-11-15T12:07:38;101445.94;;;8.59;75.48
46045;BME280;31781;54.094;13.428;2022-11-15T12:12:50;101441.88;;;8.55;75.59
46045;BME280;31781;54.094;13.428;2022-11-15T12:17:55;101432.06;;;8.54;76.19
46045;BME280;31781;54.094;13.428;2022-11-15T12:23:06;101428.16;;;8.57;76.32
46045;BME280;31781;54.094;13.428;2022-11-15T12:28:19;101429.81;;;8.58;76.39
46045;BME280;31781;54.094;13.428;2022-11-15T12:33:37;101423.87;;;8.62;76.28
46045;BME280;31781;54.094;13.428;2022-11-15T12:38:57;101421.00;;;8.64;75.99
46045;BME280;31781;54.094;13.428;2022-11-15T12:44:03;101421.00;;;8.64;76.16
46045;BME280;31781;54.094;13.428;2022-11-15T12:49:10;101423.72;;;8.64;76.71
46045;BME280;31781;54.094;13.428;2022-11-15T12:54:55;101422.84;;;8.63;76.63
46045;BME280;31781;54.094;13.428;2022-11-15T13:00:49;101419.03;;;8.72;76.04
46045;BME280;31781;54.094;13.428;2022-11-15T13:06:10;101423.50;;;8.65;76.09
46045;BME280;31781;54.094;13.428;2022-11-15T13:11:50;101424.06;;;8.61;76.97
46045;BME280;31781;54.094;13.428;2022-11-15T13:17:39;101408.75;;;8.68;76.71
46045;BME280;31781;54.094;13.428;2022-11-15T13:22:45;101398.44;;;8.63;76.65
46045;BME280;31781;54.094;13.428;2022-11-15T13:27:48;101403.37;;;8.60;77.85
46045;BME280;31781;54.094;13.428;2022-11-15T13:32:58;101396.75;;;8.62;78.23
46045;BME280;31781;54.094;13.428;2022-11-15T13:38:04;101398.56;;;8.70;77.83
46045;BME280;31781;54.094;13.428;2022-11-15T13:43:29;101404.47;;;8.73;78.33
46045;BME280;31781;54.094;13.428;2022-11-15T13:48:46;101402.22;;;8.77;77.66
46045;BME280;31781;54.094;13.428;2022-11-15T13:53:52;101396.63;;;8.78;77.79
46045;BME280;31781;54.094;13.428;2022-11-15T13:59:07;101393.72;;;8.80;78.70
46045;BME280;31781;54.094;13.428;2022-11-15T14:09:44;101389.37;;;8.94;77.97
46045;BME280;31781;54.094;13.428;2022-11-15T14:14:48;101396.22;;;8.90;78.37
46045;BME280;31781;54.094;13.428;2022-11-15T14:19:52;101392.28;;;8.92;78.63
46045;BME280;31781;54.094;13.428;2022-11-15T14:30:29;101387.62;;;9.01;77.76
46045;BME280;31781;54.094;13.428;2022-11-15T14:35:33;101386.69;;;8.94;78.14
46045;BME280;31781;54.094;13.428;2022-11-15T14:40:41;101391.44;;;8.92;78.84
46045;BME280;31781;54.094;13.428;2022-11-15T14:45:52;101391.62;;;8.90;78.60
46045;BME280;31781;54.094;13.428;2022-11-15T14:56:31;101383.50;;;8.90;78.23
46045;BME280;31781;54.094;13.428;2022-11-15T15:01:35;101377.75;;;8.85;78.41
46045;BME280;31781;54.094;13.428;2022-11-15T15:06:37;101375.41;;;8.82;78.67
46045;BME280;31781;54.094;13.428;2022-11-15T15:11:47;101369.31;;;8.80;78.84
46045;BME280;31781;54.094;13.428;2022-11-15T15:16:50;101362.37;;;8.77;78.42
46045;BME280;31781;54.094;13.428;2022-11-15T15:32:44;101362.00;;;8.80;78.36
46045;BME280;31781;54.094;13.428;2022-11-15T15:37:48;101355.63;;;8.73;79.05
46045;BME280;31781;54.094;13.428;2022-11-15T15:42:51;101363.78;;;8.73;79.33
46045;BME280;31781;54.094;13.428;2022-11-15T15:48:00;101358.34;;;8.73;79.58
46045;BME280;31781;54.094;13.428;2022-11-15T15:53:04;101360.03;;;8.74;79.29
46045;BME280;31781;54.094;13.428;2022-11-15T16:03:36;101354.72;;;8.81;79.09
46045;BME280;31781;54.094;13.428;2022-11-15T16:08:40;101341.91;;;8.75;79.31
46045;BME280;31781;54.094;13.428;2022-11-15T16:14:06;101335.78;;;8.73;80.03
46045;BME280;31781;54.094;13.428;2022-11-15T16:19:17;101328.31;;;8.75;80.01
46045;BME280;31781;54.094;13.428;2022-11-15T16:24:21;101323.53;;;8.77;79.60
46045;BME280;31781;54.094;13.428;2022-11-15T16:29:25;101325.41;;;8.76;80.34
46045;BME280;31781;54.094;13.428;2022-11-15T16:34:36;101326.75;;;8.80;80.16
46045;BME280;31781;54.094;13.428;2022-11-15T16:39:59;101330.88;;;8.91;79.60
46045;BME280;31781;54.094;13.428;2022-11-15T16:45:02;101330.59;;;8.86;79.82
46045;BME280;31781;54.094;13.428;2022-11-15T16:50:05;101337.69;;;8.87;80.43
46045;BME280;31781;54.094;13.428;2022-11-15T16:55:28;101319.31;;;8.97;79.49
46045;BME280;31781;54.094;13.428;2022-11-15T17:00:32;101318.84;;;8.94;79.68
46045;BME280;31781;54.094;13.428;2022-11-15T17:05:35;101314.03;;;8.96;79.90
46045;BME280;31781;54.094;13.428;2022-11-15T17:10:44;101322.19;;;8.96;79.82
46045;BME280;31781;54.094;13.428;2022-11-15T17:16:01;101317.44;;;8.98;79.54
46045;BME280;31781;54.094;13.428;2022-11-15T17:21:07;101309.09;;;8.99;79.41
46045;BME280;31781;54.094;13.428;2022-11-15T17:26:16;101309.78;;;9.01;79.28
46045;BME280;31781;54.094;13.428;2022-11-15T17:31:31;101297.22;;;9.00;79.06
46045;BME280;31781;54.094;13.428;2022-11-15T17:36:36;101299.09;;;9.00;79.24
46045;BME280;31781;54.094;13.428;2022-11-15T17:41:46;101293.66;;;9.00;79.24
46045;BME280;31781;54.094;13.428;2022-11-15T17:46:49;101290.94;;;9.00;79.04
46045;BME280;31781;54.094;13.428;2022-11-15T17:51:52;101289.25;;;8.99;79.30
46045;BME280;31781;54.094;13.428;2022-11-15T17:57:01;101284.87;;;8.98;79.12
46045;BME280;31781;54.094;13.428;2022-11-15T18:02:04;101292.16;;;8.97;78.84
46045;BME280;31781;54.094;13.428;2022-11-15T18:07:06;101300.47;;;8.96;79.04
46045;BME280;31781;54.094;13.428;2022-11-15T18:12:15;101296.91;;;8.95;79.13
46045;BME280;31781;54.094;13.428;2022-11-15T18:17:20;101295.72;;;8.98;79.02
46045;BME280;31781;54.094;13.428;2022-11-15T18:22:23;101296.75;;;8.97;79.01
46045;BME280;31781;54.094;13.428;2022-11-15T18:27:33;101300.31;;;8.97;78.88
46045;BME280;31781;54.094;13.428;2022-11-15T18:32:38;101290.09;;;8.99;78.64
46045;BME280;31781;54.094;13.428;2022-11-15T18:37:41;101284.66;;;8.99;78.80
46045;BME280;31781;54.094;13.428;2022-11-15T18:42:52;101274.47;;;9.01;78.58
46045;BME280;31781;54.094;13.428;2022-11-15T18:48:18;101278.78;;;9.10;78.23
46045;BME280;31781;54.094;13.428;2022-11-15T18:53:24;101294.78;;;9.05;78.21
46045;BME280;31781;54.094;13.428;2022-11-15T18:58:30;101285.59;;;9.06;78.13
46045;BME280;31781;54.094;13.428;2022-11-15T19:08:56;101286.84;;;9.18;77.63
46045;BME280;31781;54.094;13.428;2022-11-15T19:24:42;101318.09;;;9.29;77.20
46045;BME280;31781;54.094;13.428;2022-11-15T19:29:45;101314.06;;;9.25;77.11
46045;BME280;31781;54.094;13.428;2022-11-15T19:35:10;101316.72;;;9.33;76.89
46045;BME280;31781;54.094;13.428;2022-11-15T19:40:15;101320.19;;;9.27;76.78
46045;BME280;31781;54.094;13.428;2022-11-15T19:56:03;101296.47;;;9.36;76.46
46045;BME280;31781;54.094;13.428;2022-11-15T20:01:12;101304.53;;;9.29;76.36
46045;BME280;31781;54.094;13.428;2022-11-15T20:06:22;101293.03;;;9.27;76.36
46045;BME280;31781;54.094;13.428;2022-11-15T20:11:33;101297.59;;;9.26;76.29
46045;BME280;31781;54.094;13.428;2022-11-15T20:16:37;101317.47;;;9.27;76.36
46045;BME280;31781;54.094;13.428;2022-11-15T20:21:57;101308.56;;;9.33;76.35
46045;BME280;31781;54.094;13.428;2022-11-15T20:27:07;101310.97;;;9.28;76.38
46045;BME280;31781;54.094;13.428;2022-11-15T20:32:09;101296.75;;;9.26;76.49
46045;BME280;31781;54.094;13.428;2022-11-15T20:37:18;101296.56;;;9.27;76.35
46045;BME280;31781;54.094;13.428;2022-11-15T20:42:20;101289.47;;;9.26;76.44
46045;BME280;31781;54.094;13.428;2022-11-15T20:52:42;101292.09;;;9.35;76.24
46045;BME280;31781;54.094;13.428;2022-11-15T20:57:48;101300.78;;;9.30;76.08
46045;BME280;31781;54.094;13.428;2022-11-15T21:02:52;101295.38;;;9.30;75.57
46045;BME280;31781;54.094;13.428;2022-11-15T21:08:03;101297.06;;;9.31;75.26
46045;BME280;31781;54.094;13.428;2022-11-15T21:18:28;101280.00;;;9.37;75.26
46045;BME280;31781;54.094;13.428;2022-11-15T21:23:32;101283.66;;;9.29;75.04
46045;BME280;31781;54.094;13.428;2022-11-15T21:28:35;101284.03;;;9.26;74.80
46045;BME280;31781;54.094;13.428;2022-11-15T21:33:44;101269.78;;;9.24;74.82
46045;BME280;31781;54.094;13.428;2022-11-15T21:38:47;101273.56;;;9.23;74.91
46045;BME280;31781;54.094;13.428;2022-11-15T21:43:56;101264.72;;;9.21;74.51
46045;BME280;31781;54.094;13.428;2022-11-15T21:49:06;101265.13;;;9.18;74.64
46045;BME280;31781;54.094;13.428;2022-11-15T21:59:33;101251.16;;;9.21;74.62
46045;BME280;31781;54.094;13.428;2022-11-15T22:04:36;101240.59;;;9.12;74.61
46045;BME280;31781;54.094;13.428;2022-11-15T22:09:40;101235.34;;;9.10;74.04
46045;BME280;31781;54.094;13.428;2022-11-15T22:15:00;101221.38;;;9.13;74.37
46045;BME280;31781;54.094;13.428;2022-11-15T22:20:07;101218.78;;;9.05;74.26
46045;BME280;31781;54.094;13.428;2022-11-15T22:25:37;101213.72;;;9.02;74.28
46045;BME280;31781;54.094;13.428;2022-11-15T22:30:45;101211.22;;;9.01;73.90
46045;BME280;31781;54.094;13.428;2022-11-15T22:35:49;101216.34;;;8.96;74.23
46045;BME280;31781;54.094;13.428;2022-11-15T22:40:52;101221.47;;;8.91;74.11
46045;BME280;31781;54.094;13.428;2022-11-15T22:46:04;101235.62;;;8.86;74.09
46045;BME280;31781;54.094;13.428;2022-11-15T22:51:08;101227.88;;;8.83;74.41
46045;BME280;31781;54.094;13.428;2022-11-15T22:56:12;101221.94;;;8.79;73.97
46045;BME280;31781;54.094;13.428;2022-11-15T23:01:27;101222.31;;;8.76;73.96
46045;BME280;31781;54.094;13.428;2022-11-15T23:06:29;101216.03;;;8.76;74.36
46045;BME280;31781;54.094;13.428;2022-11-15T23:11:32;101197.06;;;8.76;73.91
46045;BME280;31781;54.094;13.428;2022-11-15T23:16:40;101190.81;;;8.75;73.81
46045;BME280;31781;54.094;13.428;2022-11-15T23:21:44;101187.25;;;8.75;73.97
46045;BME280;31781;54.094;13.428;2022-11-15T23:32:14;101170.38;;;8.79;73.97
46045;BME280;31781;54.094;13.428;2022-11-15T23:37:18;101172.37;;;8.71;73.96
46045;BME280;31781;54.094;13.428;2022-11-15T23:42:22;101169.84;;;8.69;73.54
46045;BME280;31781;54.094;13.428;2022-11-15T23:47:34;101169.19;;;8.67;73.48
46045;BME280;31781;54.094;13.428;2022-11-15T23:52:53;101172.16;;;8.72;73.78
46045;BME280;31781;54.094;13.428;2022-11-15T23:57:56;101178.06;;;8.61;73.78
